Aeroporto :
LOGIN :

Iscrizione | Disclaimer

   EN    FR    IT 

 










Sommario :    VFR   VFR Marginale   IFR   IFR Intensivo   IFR Molto Intensivo
Visibilità : 
Base nubi : 
>= 8 km
>= 3000ft
5 / 8 km
1000 / 3000 ft
1500m / 5 km
500 / 1000 ft
800 / 1500m
200 / 500 ft
< 800m
< 200 ft
Simboli :   Temporali  Nebbia  Neve Forte  Precipitazioni Forti  Vento > 20 kt
SIGMETs :   Varie  Temporali  Ghiacco  Turbolenza  Onda orograficha  Ceneri Vulcaniche







- Altitudine del aeroporto : 2001 ft
- Codice IATA : MAD


LEMD - Madrid

ULTIMO METAR :
  • 240700Z 03011G21KT 340V100 9999 FEW077 17/10 Q1015 NOSIG

METARs OBSOLETI :
  • 240630Z 02006KT 340V080 CAVOK 16/10 Q1015 NOSIG
  • 240600Z 02003KT CAVOK 16/10 Q1014 NOSIG
  • 240530Z 02005KT 330V070 CAVOK 16/10 Q1014 NOSIG
  • 240500Z 01004KT 310V060 CAVOK 16/11 Q1014 NOSIG
  • 240430Z 01004KT 330V070 CAVOK 17/10 Q1014 NOSIG
  • 240400Z VRB01KT CAVOK 17/10 Q1014 NOSIG

TAF TAF LEMD
Valido dal 24 a 06 ore il 25 a 12 ore UTC


240500Z 2406/2512 02010KT CAVOK TX26/2415Z TN10/2505Z
TEMPO 2406/2421 03015G27KT
PROB30
TEMPO 2411/2418 FEW045TCU
Nessun NOTAM noto per questo aeroporto.
2 SIGMETs conosciuti per la FIR Madrid (LECM) :
 
Temporali affogati
LECM SIGMET 5 VALID 240700/240900 LEVA
LECM MADRID FIR/UIR EMBD TS OBS AT 0648Z WI N4202 W00020 - N3957 W00058 - N4055 W00226 - N4235 W00135 - N4202 W00020 TOP FL300 MOV E NC=
Turbolenza severa
LECM SIGMET 4 VALID 240800/241200 LEVA
LECM MADRID UIR SEV TURB FCST WI N4347 W00234 - N4155 W00334 - N4119 W00148 - N4253 W00047 - N4347 W00234 FL250/340 MOV E WKN=



MetMap, La meteo Aeronautica in un colpo d'occhio ! - Copyright ORBIFLY Dicembre 2007 - Disclaimer

ORBIFLY MET'MAP TEAM :

Programmazione e sviluppo : Alexandra Zaïnal
Concezione e sviluppo : Baudouin d'Aumeries
Co-Programmazione e sviluppo : Marc-Olivier Méhu
Supporto tecnico e logistico : Manuel Goepfert
Aiuto per la traduzione : Arnaldo La Scala

Contatto : metmap@orbifly.com




FONTI E CREDITI :

   NOAA